Time;durP1;ratioP1;P1;durP2;ratioP2;P2;SDS_P1;SDS_P2;PMS_P1;PMS_P2;Temp;Humidity;BMP_temperature;BMP_pressure;BME280_temperature;BME280_humidity;BME280_pressure;Samples;Min_cycle;Max_cycle;Signal;HPM_P1;HPM_P2
2022/08/14 00:02:21;;;;;;;;;;;;;;;21.54;60.36;99116.31;4429886;32;19981;-86
2022/08/14 00:04:46;;;;;;;;;;;;;;;21.38;60.35;99122.09;4444298;32;19977;-87
2022/08/14 00:07:11;;;;;;;;;;;;;;;21.06;60.34;99122.19;4467997;32;19988;-87
2022/08/14 00:09:37;;;;;;;;;;;;;;;21.09;60.35;99114.84;4458441;32;20003;-86
2022/08/14 00:12:04;;;;;;;;;;;;;;;21.18;60.36;99107.06;4440780;32;29065;-86
2022/08/14 00:14:29;;;;;;;;;;;;;;;21.11;60.35;99106.75;4443345;32;19965;-86
2022/08/14 00:16:55;;;;;;;;;;;;;;;21.21;60.35;99106.78;4430321;32;19984;-86
2022/08/14 00:19:20;;;;;;;;;;;;;;;21.27;60.35;99111.59;4427822;32;20005;-86
2022/08/14 00:21:46;;;;;;;;;;;;;;;21.08;60.33;99113.16;4440718;32;20348;-86
2022/08/14 00:24:11;;;;;;;;;;;;;;;21.06;60.34;99116.91;4448298;32;19987;-87
2022/08/14 00:26:36;;;;;;;;;;;;;;;21.09;60.34;99108.69;4451860;32;19993;-86
2022/08/14 00:29:02;;;;;;;;;;;;;;;21.01;60.34;99104.03;4451881;32;19981;-86
2022/08/14 00:31:27;;;;;;;;;;;;;;;21.06;60.34;99101.03;4442495;32;19985;-86
2022/08/14 00:33:52;;;;;;;;;;;;;;;21.25;60.36;99097.66;4442500;32;20274;-86
2022/08/14 00:36:18;;;;;;;;;;;;;;;21.11;60.35;99097.00;4429414;32;19985;-86
2022/08/14 00:38:43;;;;;;;;;;;;;;;21.00;60.35;99102.37;4455888;32;20001;-86
2022/08/14 00:41:09;;;;;;;;;;;;;;;20.95;60.34;99101.94;4428552;32;19985;-85
2022/08/14 00:43:34;;;;;;;;;;;;;;;20.94;60.34;99097.59;4441271;32;20001;-86
2022/08/14 00:46:03;;;;;;;;;;;;;;;20.72;60.33;99097.75;4428735;32;20017;-86
2022/08/14 00:48:29;;;;;;;;;;;;;;;20.71;60.32;99094.25;4441538;32;20004;-86
2022/08/14 00:50:54;;;;;;;;;;;;;;;20.70;60.32;99095.22;4440906;32;28225;-85
2022/08/14 00:53:19;;;;;;;;;;;;;;;20.55;60.32;99101.78;4427739;32;33705;-86
2022/08/14 00:55:46;;;;;;;;;;;;;;;20.69;60.32;99096.19;4441454;32;20004;-86
2022/08/14 00:58:29;;;;;;;;;;;;;;;20.80;60.33;99093.47;4430068;32;19969;-85
2022/08/14 01:00:54;;;;;;;;;;;;;;;20.91;60.33;99097.03;4430321;32;19995;-86
2022/08/14 01:03:20;;;;;;;;;;;;;;;20.76;60.32;99097.34;4441543;32;20310;-87
2022/08/14 01:05:48;;;;;;;;;;;;;;;20.77;60.33;99091.09;4454578;32;35276;-87
2022/08/14 01:08:13;;;;;;;;;;;;;;;20.87;60.33;99099.09;4428724;32;20337;-88
2022/08/14 01:10:51;;;;;;;;;;;;;;;20.78;60.33;99091.94;4440964;32;19993;-87
2022/08/14 01:13:21;;;;;;;;;;;;;;;20.58;60.31;99096.25;4441208;32;20004;-87
2022/08/14 01:15:47;;;;;;;;;;;;;;;20.47;60.31;99099.78;4455490;32;20257;-87
2022/08/14 01:21:02;;;;;;;;;;;;;;;20.35;60.30;99102.59;4443418;32;20026;-88
2022/08/14 01:23:27;;;;;;;;;;;;;;;20.18;60.29;99101.34;4441936;32;19973;-87
2022/08/14 01:25:54;;;;;;;;;;;;;;;20.25;60.29;99099.84;4441161;32;20019;-87
2022/08/14 01:28:19;;;;;;;;;;;;;;;20.21;60.29;99104.56;4441290;32;20030;-87
2022/08/14 01:30:45;;;;;;;;;;;;;;;20.29;60.29;99101.28;4441336;32;20292;-88
2022/08/14 01:33:11;;;;;;;;;;;;;;;20.29;60.30;99100.44;4454456;32;33255;-87
2022/08/14 01:35:36;;;;;;;;;;;;;;;20.26;60.30;99101.53;4441394;32;19990;-87
2022/08/14 01:38:02;;;;;;;;;;;;;;;20.29;60.30;99108.38;4440567;32;30493;-88
2022/08/14 01:40:27;;;;;;;;;;;;;;;20.17;60.30;99102.28;4440961;32;36541;-86
2022/08/14 01:42:53;;;;;;;;;;;;;;;20.08;60.29;99108.31;4455336;32;20254;-86
2022/08/14 01:45:18;;;;;;;;;;;;;;;20.05;60.29;99111.19;4441232;32;19992;-87
2022/08/14 01:47:43;;;;;;;;;;;;;;;19.98;60.28;99113.50;4440623;32;19977;-87
2022/08/14 01:50:08;;;;;;;;;;;;;;;20.14;60.29;99108.66;4440406;32;25124;-86
2022/08/14 01:52:35;;;;;;;;;;;;;;;19.99;60.28;99109.91;4440949;32;20006;-86
2022/08/14 01:55:01;;;;;;;;;;;;;;;19.98;60.28;99110.03;4428244;32;19996;-87
2022/08/14 01:57:26;;;;;;;;;;;;;;;20.09;60.29;99104.69;4441071;32;20007;-86
2022/08/14 01:59:53;;;;;;;;;;;;;;;19.97;60.28;99114.47;4440731;32;20001;-86
2022/08/14 02:02:18;;;;;;;;;;;;;;;19.73;60.27;99108.53;4441215;32;20033;-86
2022/08/14 02:04:45;;;;;;;;;;;;;;;19.88;60.28;99102.88;4441600;32;19993;-86
2022/08/14 02:07:10;;;;;;;;;;;;;;;20.04;60.28;99112.16;4455518;32;19985;-87
2022/08/14 02:09:37;;;;;;;;;;;;;;;20.20;60.29;99108.16;4441681;32;20013;-88
2022/08/14 02:12:03;;;;;;;;;;;;;;;19.88;60.27;99108.16;4442280;32;19977;-88
2022/08/14 02:14:30;;;;;;;;;;;;;;;19.86;60.28;99114.47;4429542;32;20020;-87
2022/08/14 02:16:56;;;;;;;;;;;;;;;19.96;60.28;99119.88;4440775;32;20007;-87
2022/08/14 02:19:22;;;;;;;;;;;;;;;19.99;60.28;99109.06;4427989;32;19989;-87
2022/08/14 02:21:48;;;;;;;;;;;;;;;19.95;60.28;99111.13;4440769;32;19994;-88
2022/08/14 02:24:14;;;;;;;;;;;;;;;19.95;60.28;99116.41;4440941;32;20058;-87
2022/08/14 02:26:40;;;;;;;;;;;;;;;19.98;60.28;99112.69;4427888;32;19997;-88
2022/08/14 02:29:13;;;;;;;;;;;;;;;19.87;60.27;99113.53;4439572;32;20052;-87
2022/08/14 02:31:39;;;;;;;;;;;;;;;20.13;60.29;99100.88;4440569;32;19988;-87
2022/08/14 02:34:07;;;;;;;;;;;;;;;20.02;60.28;99104.38;4440667;32;20008;-87
2022/08/14 02:36:32;;;;;;;;;;;;;;;19.90;60.27;99103.56;4455121;32;20361;-86
2022/08/14 02:38:57;;;;;;;;;;;;;;;19.95;60.28;99102.34;4440358;32;20002;-86
2022/08/14 02:41:23;;;;;;;;;;;;;;;19.96;60.28;99098.75;4454457;32;19984;-85
2022/08/14 02:43:49;;;;;;;;;;;;;;;20.00;60.28;99108.09;4440526;32;20666;-85
2022/08/14 02:46:15;;;;;;;;;;;;;;;20.05;60.28;99105.91;4453781;32;29345;-85
2022/08/14 02:48:40;;;;;;;;;;;;;;;20.01;60.28;99107.97;4427316;32;20036;-87
2022/08/14 02:51:10;;;;;;;;;;;;;;;19.99;60.28;99109.06;4440324;32;19985;-87
2022/08/14 02:53:38;;;;;;;;;;;;;;;20.14;60.28;99110.47;4427368;32;19997;-86
2022/08/14 02:56:03;;;;;;;;;;;;;;;20.08;60.29;99108.31;4429051;32;20007;-86
2022/08/14 02:58:29;;;;;;;;;;;;;;;20.08;60.29;99116.22;4440254;32;19985;-85
2022/08/14 03:00:54;;;;;;;;;;;;;;;20.16;60.29;99113.84;4440050;32;19995;-85
2022/08/14 03:03:22;;;;;;;;;;;;;;;20.11;60.29;99115.97;4427221;32;20357;-87
2022/08/14 03:05:50;;;;;;;;;;;;;;;20.08;60.29;99111.78;4454237;32;19997;-86
2022/08/14 03:08:15;;;;;;;;;;;;;;;20.16;60.29;99109.37;4440354;32;19992;-88
2022/08/14 03:10:40;;;;;;;;;;;;;;;20.16;60.29;99108.53;4427130;32;19989;-89
2022/08/14 03:13:06;;;;;;;;;;;;;;;19.63;60.26;99116.31;4439946;32;19989;-88
2022/08/14 03:15:32;;;;;;;;;;;;;;;19.78;60.27;99111.63;4440558;32;22346;-88
2022/08/14 03:17:58;;;;;;;;;;;;;;;19.72;60.27;99109.50;4440488;32;19982;-88
2022/08/14 03:20:23;;;;;;;;;;;;;;;19.72;60.26;99117.41;4426827;32;19987;-89
2022/08/14 03:22:48;;;;;;;;;;;;;;;19.60;60.25;99124.47;4426967;32;20015;-88
2022/08/14 03:25:13;;;;;;;;;;;;;;;19.67;60.26;99123.06;4439887;32;20026;-86
2022/08/14 03:27:39;;;;;;;;;;;;;;;19.81;60.27;99116.66;4439564;32;20318;-86
2022/08/14 03:30:04;;;;;;;;;;;;;;;19.92;60.28;99114.84;4439518;32;20289;-85
2022/08/14 03:32:32;;;;;;;;;;;;;;;19.94;60.28;99117.37;4426549;32;20362;-86
2022/08/14 03:34:57;;;;;;;;;;;;;;;19.81;60.27;99119.31;4440387;32;20042;-87
2022/08/14 03:37:22;;;;;;;;;;;;;;;19.95;60.28;99118.22;4427553;32;20009;-88
2022/08/14 03:39:48;;;;;;;;;;;;;;;19.97;60.28;99119.75;4442825;32;20273;-88
2022/08/14 03:42:13;;;;;;;;;;;;;;;19.93;60.28;99118.34;4455410;32;19985;-88
2022/08/14 03:44:40;;;;;;;;;;;;;;;19.92;60.28;99114.84;4470753;32;19965;-86
2022/08/14 03:47:05;;;;;;;;;;;;;;;19.92;60.29;99112.22;4440654;32;19961;-86
2022/08/14 03:49:30;;;;;;;;;;;;;;;20.12;60.29;99115.88;4443990;32;20014;-86
2022/08/14 03:51:56;;;;;;;;;;;;;;;20.08;60.29;99114.44;4443820;32;19982;-87
2022/08/14 03:54:23;;;;;;;;;;;;;;;19.93;60.27;99111.25;4442569;32;20033;-86
2022/08/14 03:56:48;;;;;;;;;;;;;;;19.95;60.28;99112.94;4441840;32;19992;-87
2022/08/14 03:59:13;;;;;;;;;;;;;;;19.76;60.26;99113.56;4428847;32;19974;-86
2022/08/14 04:01:39;;;;;;;;;;;;;;;19.58;60.26;99116.69;4400272;32;879582;-86
2022/08/14 04:04:05;;;;;;;;;;;;;;;19.66;60.26;99118.75;4441593;32;20050;-86
2022/08/14 04:06:33;;;;;;;;;;;;;;;19.73;60.27;99117.28;4441670;32;20317;-85
2022/08/14 04:08:59;;;;;;;;;;;;;;;19.94;60.28;99117.37;4441450;32;19999;-85
2022/08/14 04:11:24;;;;;;;;;;;;;;;19.69;60.26;99117.66;4430010;32;20330;-85
2022/08/14 04:13:49;;;;;;;;;;;;;;;19.67;60.26;99127.50;4454811;32;35280;-88
2022/08/14 04:16:16;;;;;;;;;;;;;;;19.73;60.26;99125.22;4441539;32;20035;-86
2022/08/14 04:18:43;;;;;;;;;;;;;;;20.03;60.28;99121.06;4441577;32;19961;-86
2022/08/14 04:21:09;;;;;;;;;;;;;;;19.99;60.28;99127.56;4428310;32;19993;-86
2022/08/14 04:23:34;;;;;;;;;;;;;;;19.82;60.26;99123.63;4428603;32;20378;-85
2022/08/14 04:26:00;;;;;;;;;;;;;;;19.80;60.26;99123.75;4428084;32;21695;-86
2022/08/14 04:28:25;;;;;;;;;;;;;;;19.99;60.27;99127.56;4441437;32;19981;-85
2022/08/14 04:30:50;;;;;;;;;;;;;;;19.98;60.28;99121.44;4440608;32;22015;-84
2022/08/14 04:33:16;;;;;;;;;;;;;;;19.96;60.28;99126.00;4455672;32;20014;-85
2022/08/14 04:35:41;;;;;;;;;;;;;;;20.06;60.28;99131.38;4428715;32;20026;-85
2022/08/14 04:43:35;;;;;;;;;;;;;;;20.41;60.30;99136.47;4443629;32;19996;-85
2022/08/14 04:46:01;;;;;;;;;;;;;;;20.29;60.29;99130.34;4441688;32;19988;-85
2022/08/14 04:48:27;;;;;;;;;;;;;;;20.54;60.30;99134.47;4455391;32;19988;-84
2022/08/14 04:50:52;;;;;;;;;;;;;;;20.66;60.31;99135.28;4441275;32;20008;-88
2022/08/14 04:53:18;;;;;;;;;;;;;;;20.50;60.30;99125.97;4447035;32;19954;-89
2022/08/14 04:55:47;;;;;;;;;;;;;;;20.69;60.31;99117.34;4451657;32;19945;-87
2022/08/14 04:58:12;;;;;;;;;;;;;;;20.68;60.31;99126.25;4447440;32;19974;-89
2022/08/14 05:00:39;;;;;;;;;;;;;;;20.77;60.31;99128.12;4442128;32;19981;-88
2022/08/14 05:03:04;;;;;;;;;;;;;;;20.95;60.33;99125.75;4442514;32;20405;-89
2022/08/14 05:05:30;;;;;;;;;;;;;;;21.03;60.33;99130.38;4429368;32;20001;-89
2022/08/14 05:07:55;;;;;;;;;;;;;;;21.21;60.34;99134.09;4441735;32;19972;-89
2022/08/14 05:10:24;;;;;;;;;;;;;;;21.21;60.33;99128.81;4455662;32;20009;-87
2022/08/14 05:12:51;;;;;;;;;;;;;;;21.23;60.34;99134.81;4441636;32;19981;-88
2022/08/14 05:15:16;;;;;;;;;;;;;;;21.22;60.33;99132.28;4441413;32;19993;-87
2022/08/14 05:17:42;;;;;;;;;;;;;;;21.42;60.35;99127.00;4441466;32;19980;-85
2022/08/14 05:20:08;;;;;;;;;;;;;;;21.49;60.36;99122.00;4428458;32;20011;-85
2022/08/14 05:22:33;;;;;;;;;;;;;;;21.74;60.36;99116.22;4441372;32;20012;-85
2022/08/14 05:24:59;;;;;;;;;;;;;;;21.82;60.37;99117.37;4440979;32;22436;-86
2022/08/14 05:27:24;;;;;;;;;;;;;;;21.97;60.38;99116.00;4441880;32;19961;-86
2022/08/14 05:29:50;;;;;;;;;;;;;;;21.99;60.38;99122.00;4427812;32;26329;-86
2022/08/14 05:32:16;;;;;;;;;;;;;;;22.13;60.39;99113.69;4441271;32;20095;-86
2022/08/14 05:34:41;;;;;;;;;;;;;;;22.26;60.39;99114.28;4441625;32;20268;-85
2022/08/14 05:37:07;;;;;;;;;;;;;;;22.56;60.40;99120.41;4455246;32;19992;-86
2022/08/14 05:39:32;;;;;;;;;;;;;;;22.54;60.41;99122.38;4440484;32;29665;-86
2022/08/14 05:41:57;;;;;;;;;;;;;;;22.56;60.40;99121.25;4440702;32;20014;-87
2022/08/14 05:44:23;;;;;;;;;;;;;;;22.77;60.42;99114.97;4441408;32;20338;-90
2022/08/14 05:46:48;;;;;;;;;;;;;;;22.85;60.43;99118.59;4428389;32;19973;-84
2022/08/14 05:49:13;;;;;;;;;;;;;;;22.93;60.43;99125.84;4428435;32;19985;-86
2022/08/14 05:51:39;;;;;;;;;;;;;;;22.96;60.42;99122.94;4440965;32;20361;-85
2022/08/14 05:54:05;;;;;;;;;;;;;;;23.23;60.44;99117.69;4441289;32;19984;-86
2022/08/14 05:56:30;;;;;;;;;;;;;;;23.24;60.44;99121.16;4427984;32;20017;-85
2022/08/14 05:58:56;;;;;;;;;;;;;;;23.45;60.46;99123.63;4440893;32;20005;-85
2022/08/14 06:01:21;;;;;;;;;;;;;;;23.44;60.46;99122.78;4454994;32;19981;-86
2022/08/14 06:03:46;;;;;;;;;;;;;;;23.56;60.46;99118.97;4440826;32;20008;-86
2022/08/14 06:06:12;;;;;;;;;;;;;;;23.72;60.46;99114.84;4440287;32;23778;-86
2022/08/14 06:08:37;;;;;;;;;;;;;;;23.89;60.49;99117.53;4454505;32;35878;-86
2022/08/14 06:11:06;;;;;;;;;;;;;;;24.17;60.49;99120.16;4440631;32;19993;-86
2022/08/14 06:13:31;;;;;;;;;;;;;;;24.24;60.50;99118.56;4454731;32;19977;-86
2022/08/14 06:15:57;;;;;;;;;;;;;;;24.26;60.50;99113.94;4440672;32;20030;-86
2022/08/14 06:18:22;;;;;;;;;;;;;;;24.50;60.51;99116.00;4427534;32;20039;-86
2022/08/14 06:20:47;;;;;;;;;;;;;;;24.45;60.51;99110.31;4453683;32;33855;-86
2022/08/14 06:23:12;;;;;;;;;;;;;;;24.54;60.51;99112.06;4439852;32;29439;-86
2022/08/14 06:25:38;;;;;;;;;;;;;;;24.72;60.52;99109.37;4440213;32;19974;-86
2022/08/14 06:28:03;;;;;;;;;;;;;;;24.87;60.52;99105.19;4454275;32;20032;-87
2022/08/14 06:30:29;;;;;;;;;;;;;;;24.92;60.54;99102.03;4454359;32;20026;-86
2022/08/14 06:32:54;;;;;;;;;;;;;;;25.06;60.53;99107.66;4440221;32;19998;-86
2022/08/14 06:35:21;;;;;;;;;;;;;;;25.26;60.55;99097.59;4427167;32;20028;-87
2022/08/14 06:37:50;;;;;;;;;;;;;;;25.49;60.56;99102.37;4440563;32;20381;-87
2022/08/14 06:40:36;;;;;;;;;;;;;;;25.16;60.55;99112.03;4454352;32;20317;-86
2022/08/14 06:43:03;;;;;;;;;;;;;;;25.46;60.56;99108.87;4453973;32;19977;-87
2022/08/14 06:45:29;;;;;;;;;;;;;;;25.61;60.56;99095.78;4440205;32;19974;-86
2022/08/14 06:47:55;;;;;;;;;;;;;;;25.85;60.57;99090.56;4427064;32;20087;-86
2022/08/14 06:50:20;;;;;;;;;;;;;;;26.00;60.58;99096.94;4454340;32;20369;-86
2022/08/14 06:52:46;;;;;;;;;;;;;;;26.17;60.60;99089.78;4439886;32;19970;-86
2022/08/14 06:55:12;;;;;;;;;;;;;;;26.39;60.61;99079.50;4427207;32;20008;-86
2022/08/14 06:57:41;;;;;;;;;;;;;;;26.65;60.62;99074.84;4454023;32;19981;-86
2022/08/14 07:00:07;;;;;;;;;;;;;;;26.75;60.63;99074.69;4440110;32;20047;-84
2022/08/14 07:08:00;;;;;;;;;;;;;;;27.32;60.65;99069.22;4442145;32;20400;-86
2022/08/14 07:10:25;;;;;;;;;;;;;;;27.55;60.66;99067.47;4426740;32;29933;-86
2022/08/14 07:12:51;;;;;;;;;;;;;;;27.58;60.66;99069.78;4439965;32;35022;-86
2022/08/14 07:15:16;;;;;;;;;;;;;;;27.52;60.67;99063.28;4442277;32;20059;-86
2022/08/14 07:17:45;;;;;;;;;;;;;;;27.42;60.65;99077.84;4464131;32;23879;-86
2022/08/14 07:20:10;;;;;;;;;;;;;;;27.64;60.67;99074.47;4454913;32;20007;-86
2022/08/14 07:22:35;;;;;;;;;;;;;;;27.75;60.68;99073.25;4467981;32;23381;-86
2022/08/14 07:25:01;;;;;;;;;;;;;;;27.88;60.68;99062.78;4446288;32;20254;-86
2022/08/14 07:27:27;;;;;;;;;;;;;;;28.10;60.70;99066.50;4442769;32;19997;-86
2022/08/14 07:29:52;;;;;;;;;;;;;;;28.17;60.70;99072.00;4429155;32;20016;-86
2022/08/14 07:32:18;;;;;;;;;;;;;;;28.22;60.71;99078.47;4428987;32;20317;-86
2022/08/14 07:34:43;;;;;;;;;;;;;;;28.36;60.71;99067.00;4441864;32;20000;-87
2022/08/14 07:37:08;;;;;;;;;;;;;;;28.39;60.71;99071.16;4441935;32;20005;-86
2022/08/14 07:39:33;;;;;;;;;;;;;;;28.57;60.72;99063.66;4428888;32;19980;-86
2022/08/14 07:41:58;;;;;;;;;;;;;;;28.62;60.73;99065.78;4441133;32;20348;-86
2022/08/14 07:44:24;;;;;;;;;;;;;;;28.83;60.73;99067.78;4428374;32;26594;-86
2022/08/14 07:46:49;;;;;;;;;;;;;;;28.69;60.73;99067.56;4428699;32;20278;-87
2022/08/14 07:49:14;;;;;;;;;;;;;;;28.75;60.73;99066.00;4441344;32;22798;-87
2022/08/14 07:51:39;;;;;;;;;;;;;;;28.76;60.73;99069.53;4440879;32;34949;-87
2022/08/14 07:54:05;;;;;;;;;;;;;;;28.80;60.73;99066.28;4441764;32;19973;-86
2022/08/14 07:56:31;;;;;;;;;;;;;;;28.92;60.73;99061.38;4442123;32;19993;-86
2022/08/14 07:58:56;;;;;;;;;;;;;;;28.86;60.74;99059.41;4442318;32;20014;-86
2022/08/14 08:01:21;;;;;;;;;;;;;;;28.91;60.73;99057.84;4441574;32;19977;-86
2022/08/14 08:03:48;;;;;;;;;;;;;;;28.93;60.73;99057.66;4441021;32;25697;-86
2022/08/14 08:06:16;;;;;;;;;;;;;;;29.01;60.75;99069.13;4441714;32;20102;-86
2022/08/14 08:08:41;;;;;;;;;;;;;;;28.86;60.74;99062.91;4455688;32;19988;-87
2022/08/14 08:11:07;;;;;;;;;;;;;;;28.73;60.72;99062.69;4441503;32;20026;-86
2022/08/14 08:13:33;;;;;;;;;;;;;;;28.62;60.73;99060.44;4441728;32;19992;-86
2022/08/14 08:15:58;;;;;;;;;;;;;;;28.71;60.73;99064.72;4428796;32;20001;-86
2022/08/14 08:18:25;;;;;;;;;;;;;;;29.08;60.74;99065.69;4455804;32;20055;-87
2022/08/14 08:20:51;;;;;;;;;;;;;;;28.90;60.73;99063.41;4455739;32;20349;-87
2022/08/14 08:23:17;;;;;;;;;;;;;;;29.03;60.75;99067.09;4428691;32;19974;-86
2022/08/14 08:25:43;;;;;;;;;;;;;;;29.30;60.76;99060.25;4455551;32;19995;-87
2022/08/14 08:28:08;;;;;;;;;;;;;;;29.51;60.77;99047.97;4427780;32;20011;-86
2022/08/14 08:30:36;;;;;;;;;;;;;;;29.71;60.78;99048.22;4441384;32;20021;-86
2022/08/14 08:33:01;;;;;;;;;;;;;;;29.80;60.79;99047.06;4456284;32;19973;-87
2022/08/14 08:35:28;;;;;;;;;;;;;;;29.91;60.79;99046.59;4441899;32;19997;-87
2022/08/14 08:37:53;;;;;;;;;;;;;;;29.87;60.78;99042.63;4455744;32;20329;-87
2022/08/14 08:40:29;;;;;;;;;;;;;;;30.09;60.80;99052.38;4441375;32;20018;-87
2022/08/14 08:42:54;;;;;;;;;;;;;;;30.45;60.82;99040.72;4441644;32;19965;-86
2022/08/14 08:45:20;;;;;;;;;;;;;;;30.85;60.84;99037.34;4441381;32;20004;-86
2022/08/14 08:47:46;;;;;;;;;;;;;;;31.09;60.85;99040.59;4428431;32;20298;-86
2022/08/14 08:50:14;;;;;;;;;;;;;;;31.22;60.85;99038.00;4428432;32;20015;-87
2022/08/14 08:52:49;;;;;;;;;;;;;;;31.29;60.85;99046.13;4441484;32;19977;-86
2022/08/14 08:55:15;;;;;;;;;;;;;;;31.53;60.86;99036.72;4455557;32;19990;-87
2022/08/14 08:57:41;;;;;;;;;;;;;;;31.58;60.87;99028.88;4441296;32;20055;-87
2022/08/14 09:00:14;;;;;;;;;;;;;;;31.75;60.88;99028.34;4441366;32;20052;-87
2022/08/14 09:02:41;;;;;;;;;;;;;;;31.74;60.88;99017.78;4455575;32;19973;-87
2022/08/14 09:05:07;;;;;;;;;;;;;;;31.77;60.88;99028.13;4455349;32;20036;-87
2022/08/14 09:07:32;;;;;;;;;;;;;;;31.68;60.88;99021.22;4441238;32;19999;-87
2022/08/14 09:09:57;;;;;;;;;;;;;;;31.88;60.90;99018.63;4440766;32;23830;-87
2022/08/14 09:12:23;;;;;;;;;;;;;;;32.18;60.90;99017.25;4427900;32;21996;-86
2022/08/14 09:14:51;;;;;;;;;;;;;;;32.32;60.91;99021.62;4441123;32;20005;-87
2022/08/14 09:17:17;;;;;;;;;;;;;;;32.04;60.90;99013.69;4455690;32;20322;-87
2022/08/14 09:19:42;;;;;;;;;;;;;;;32.25;60.91;99019.94;4427895;32;19996;-87
2022/08/14 09:22:07;;;;;;;;;;;;;;;32.43;60.91;99017.50;4441083;32;19965;-87
2022/08/14 09:24:33;;;;;;;;;;;;;;;32.38;60.92;99006.50;4441060;32;20045;-87
2022/08/14 09:26:58;;;;;;;;;;;;;;;32.44;60.92;99004.84;4441011;32;20238;-87
2022/08/14 09:29:23;;;;;;;;;;;;;;;32.73;60.93;98996.31;4441134;32;19976;-87
2022/08/14 09:31:49;;;;;;;;;;;;;;;32.99;60.94;99002.72;4440358;32;24389;-87
2022/08/14 09:34:21;;;;;;;;;;;;;;;33.03;60.95;99004.78;4441043;32;20069;-87
2022/08/14 09:37:06;;;;;;;;;;;;;;;33.12;60.95;98995.41;4428008;32;19989;-87
2022/08/14 09:39:50;;;;;;;;;;;;;;;33.32;60.96;98992.66;4427653;32;19981;-87
2022/08/14 09:42:24;;;;;;;;;;;;;;;33.50;60.97;98992.78;4455285;32;20007;-87
2022/08/14 09:45:11;;;;;;;;;;;;;;;33.51;60.97;98988.22;4440911;32;20045;-87
2022/08/14 09:47:46;;;;;;;;;;;;;;;33.43;60.97;98988.50;4455206;32;20040;-87
2022/08/14 09:50:21;;;;;;;;;;;;;;;33.36;60.96;98993.06;4455609;32;19981;-87
2022/08/14 09:52:48;;;;;;;;;;;;;;;33.32;60.97;98986.44;4441211;32;19977;-87
2022/08/14 09:55:19;;;;;;;;;;;;;;;33.47;60.98;98978.91;4441062;32;20011;-87
2022/08/14 09:57:45;;;;;;;;;;;;;;;33.53;60.97;98981.56;4428230;32;20070;-87
2022/08/14 10:00:13;;;;;;;;;;;;;;;33.64;60.98;98971.97;4440785;32;20008;-87
2022/08/14 10:02:38;;;;;;;;;;;;;;;33.73;60.99;98976.06;4455221;32;20431;-87
2022/08/14 10:05:08;;;;;;;;;;;;;;;33.54;60.98;98980.53;4440714;32;19985;-87
2022/08/14 10:07:34;;;;;;;;;;;;;;;33.40;60.97;98981.66;4454995;32;20288;-87
2022/08/14 10:10:00;;;;;;;;;;;;;;;33.37;60.97;98975.88;4441102;32;20275;-87
2022/08/14 10:12:29;;;;;;;;;;;;;;;33.57;60.98;98976.56;4440919;32;19984;-88
2022/08/14 10:14:54;;;;;;;;;;;;;;;33.98;61.00;98976.12;4428252;32;20026;-87
2022/08/14 10:17:28;;;;;;;;;;;;;;;34.39;61.02;98975.62;4440524;32;26827;-87
2022/08/14 10:19:53;;;;;;;;;;;;;;;34.59;61.02;98975.47;4428583;32;19982;-87
2022/08/14 10:22:28;;;;;;;;;;;;;;;34.95;61.05;98965.75;4441004;32;19985;-87
2022/08/14 10:24:54;;;;;;;;;;;;;;;35.03;61.05;98968.16;4428436;32;20027;-87
2022/08/14 10:27:22;;;;;;;;;;;;;;;35.01;61.05;98957.53;4440700;32;20258;-87
2022/08/14 10:29:51;;;;;;;;;;;;;;;35.09;61.06;98959.13;4440802;32;19973;-88
2022/08/14 10:32:16;;;;;;;;;;;;;;;35.14;61.05;98964.69;4427699;32;19970;-88
2022/08/14 10:34:41;;;;;;;;;;;;;;;35.52;61.07;98969.03;4440443;32;19981;-87
2022/08/14 10:37:07;;;;;;;;;;;;;;;35.67;61.08;98961.28;4440531;32;20003;-87
2022/08/14 10:39:32;;;;;;;;;;;;;;;35.67;61.08;98956.72;4454429;32;19985;-87
2022/08/14 10:42:04;;;;;;;;;;;;;;;35.87;61.09;98961.03;4440198;32;19965;-86
2022/08/14 10:44:46;;;;;;;;;;;;;;;35.79;61.09;98955.94;4440696;32;20008;-85
2022/08/14 10:47:11;;;;;;;;;;;;;;;35.63;61.07;98952.00;4440747;32;20007;-87
2022/08/14 10:49:37;;;;;;;;;;;;;;;35.81;61.08;98957.34;4440372;32;20033;-87
2022/08/14 10:52:07;;;;;;;;;;;;;;;36.11;61.10;98959.19;4442236;32;19989;-87
2022/08/14 10:54:36;;;;;;;;;;;;;;;36.42;61.12;98947.22;4442785;32;20027;-87
2022/08/14 10:57:17;;;;;;;;;;;;;;;36.56;61.13;98952.19;4429414;32;20061;-87
2022/08/14 10:59:54;;;;;;;;;;;;;;;36.67;61.12;98955.94;4442090;32;19984;-88
2022/08/14 11:02:20;;;;;;;;;;;;;;;37.05;61.14;98944.59;4442381;32;19969;-88
2022/08/14 11:05:00;;;;;;;;;;;;;;;37.14;61.15;98937.72;4442181;32;20035;-87
2022/08/14 11:07:26;;;;;;;;;;;;;;;37.25;61.15;98933.34;4456439;32;19996;-88
2022/08/14 11:10:14;;;;;;;;;;;;;;;37.39;61.16;98936.63;4429365;32;19985;-87
2022/08/14 11:12:44;;;;;;;;;;;;;;;37.39;61.17;98936.63;4436160;32;19993;-88
2022/08/14 11:15:09;;;;;;;;;;;;;;;37.37;61.16;98939.53;4433463;32;19980;-87
2022/08/14 11:17:35;;;;;;;;;;;;;;;37.55;61.17;98932.28;4456920;32;19984;-87
2022/08/14 11:20:01;;;;;;;;;;;;;;;37.51;61.16;98922.97;4457039;32;19953;-87
2022/08/14 11:22:27;;;;;;;;;;;;;;;37.58;61.17;98920.91;4438249;32;20337;-87
2022/08/14 11:24:52;;;;;;;;;;;;;;;37.49;61.17;98920.50;4442462;32;20004;-87
2022/08/14 11:27:17;;;;;;;;;;;;;;;37.56;61.17;98917.63;4442354;32;19985;-88
2022/08/14 11:29:43;;;;;;;;;;;;;;;37.74;61.18;98912.84;4455400;32;27134;-88
2022/08/14 11:32:08;;;;;;;;;;;;;;;37.91;61.19;98915.56;4442158;32;19972;-87
2022/08/14 11:34:36;;;;;;;;;;;;;;;37.76;61.19;98907.97;4441920;32;20257;-88
2022/08/14 11:37:08;;;;;;;;;;;;;;;37.95;61.19;98905.03;4442113;32;20329;-87
2022/08/14 11:39:34;;;;;;;;;;;;;;;37.93;61.19;98901.75;4456048;32;20052;-87
2022/08/14 11:42:01;;;;;;;;;;;;;;;37.94;61.20;98900.66;4441476;32;21799;-87
2022/08/14 11:44:26;;;;;;;;;;;;;;;37.64;61.18;98900.97;4442111;32;20317;-88
2022/08/14 11:46:51;;;;;;;;;;;;;;;37.66;61.17;98890.66;4455094;32;36270;-88
2022/08/14 11:49:24;;;;;;;;;;;;;;;37.41;61.16;98891.03;4441759;32;19980;-87
2022/08/14 11:51:53;;;;;;;;;;;;;;;36.78;61.13;98895.47;4455880;32;20036;-87
2022/08/14 11:54:18;;;;;;;;;;;;;;;36.57;61.13;98891.47;4441822;32;20278;-87
2022/08/14 11:56:44;;;;;;;;;;;;;;;36.94;61.16;98877.62;4441049;32;30771;-88
2022/08/14 11:59:14;;;;;;;;;;;;;;;37.14;61.16;98874.47;4441883;32;20387;-88
2022/08/14 12:01:39;;;;;;;;;;;;;;;37.22;61.16;98867.84;4441637;32;19980;-88
2022/08/14 12:04:12;;;;;;;;;;;;;;;37.29;61.17;98863.13;4441807;32;20035;-88
2022/08/14 12:06:51;;;;;;;;;;;;;;;37.42;61.16;98860.94;4455805;32;19981;-87
2022/08/14 12:09:28;;;;;;;;;;;;;;;37.38;61.17;98865.19;4441562;32;20330;-87
2022/08/14 12:11:54;;;;;;;;;;;;;;;37.53;61.18;98866.53;4455750;32;20012;-89
2022/08/14 12:14:21;;;;;;;;;;;;;;;37.86;61.19;98872.03;4455672;32;20326;-87
2022/08/14 12:16:56;;;;;;;;;;;;;;;37.66;61.17;98861.62;4455910;32;19985;-87
2022/08/14 12:19:21;;;;;;;;;;;;;;;37.64;61.18;98862.94;4428701;32;19973;-88
2022/08/14 12:21:49;;;;;;;;;;;;;;;37.75;61.19;98860.16;4428699;32;19992;-88
2022/08/14 12:24:14;;;;;;;;;;;;;;;37.94;61.20;98855.31;4441590;32;20001;-88
2022/08/14 12:26:40;;;;;;;;;;;;;;;38.01;61.20;98850.50;4428453;32;19985;-88
2022/08/14 12:29:07;;;;;;;;;;;;;;;38.14;61.20;98854.78;4442113;32;19989;-88
2022/08/14 12:31:32;;;;;;;;;;;;;;;38.22;61.21;98848.13;4441675;32;19966;-87
2022/08/14 12:34:01;;;;;;;;;;;;;;;38.13;61.20;98839.56;4441585;32;19991;-87
2022/08/14 12:36:29;;;;;;;;;;;;;;;37.98;61.19;98845.56;4455982;32;20032;-88
2022/08/14 12:38:54;;;;;;;;;;;;;;;37.99;61.19;98849.94;4441892;32;20025;-87
2022/08/14 12:41:20;;;;;;;;;;;;;;;37.94;61.19;98841.72;4428669;32;19973;-87
2022/08/14 12:43:52;;;;;;;;;;;;;;;38.06;61.19;98839.72;4441476;32;20011;-88
2022/08/14 12:46:28;;;;;;;;;;;;;;;38.25;61.21;98839.47;4455598;32;19981;-88
2022/08/14 12:48:53;;;;;;;;;;;;;;;38.24;61.20;98837.81;4441436;32;19992;-87
2022/08/14 12:51:20;;;;;;;;;;;;;;;38.25;61.21;98842.19;4455489;32;19981;-87
2022/08/14 12:53:45;;;;;;;;;;;;;;;38.36;61.22;98833.13;4455531;32;20007;-88
2022/08/14 12:56:12;;;;;;;;;;;;;;;38.45;61.22;98831.59;4441380;32;20475;-87
2022/08/14 12:58:37;;;;;;;;;;;;;;;38.36;61.21;98835.84;4455641;32;19961;-87
2022/08/14 13:01:03;;;;;;;;;;;;;;;38.01;61.20;98828.78;4441440;32;20301;-87